UKDE/OZH METAR and TAF weather

Enter ICAO airport designator
Station Type Date Time Source
UKDE METAR 2021/07/29 18:30 UTC NOAA

UKDE 291830Z 01005MPS 330V070 9999 TS BKN036CB 22/18 Q1011 R02/210357 TEMPO VRB10G15MPS 1000 TSRA SQ BKN006 BKN015CB


Station Type Date Time Source
UKDE Decoded METAR 2021/07/29 18:30 UTC NOAA

Zaporizhzhia / Mokraya, Ukraine (UKDE) 47-52-02N 035-18-59E
Jul 29, 2021 - 02:30 PM EDT / 2021.07.29 1830 UTC
Wind: from the N (010 degrees) at 11 MPH (10 KT) (direction variable):0
Visibility: greater than 7 mile(s):0
Sky conditions: mostly cloudy
Weather: thunder; Cumulonimbus clouds observed
Temperature: 71 F (22 C)
Dew Point: 64 F (18 C)
Relative Humidity: 78%
Pressure (altimeter): 29.85 in. Hg (1011 hPa)
ob: UKDE 291830Z 01005MPS 330V070 9999 TS BKN036CB 22/18 Q1011 R02/210357 TEMPO VRB10G15MPS 1000 TSRA SQ BKN006 BKN015CB
cycle: 18

Station Type Date Time Source
UKDE TAF 2020/06/03 15:15 UTC NOAA

TAF
AMD TAF
AMD UKDE 031510Z 0315/0524 21007MPS 9999 BKN030CB
TEMPO 0315/0318 VRB15G20MPS 0300 +TSRAGR SQ BKN007 BKN013CB

Example: see airport list